createdAt,value
2023-03-25T00:03:04.876Z,13.23
2023-03-25T00:08:07.574Z,13.25
2023-03-25T00:13:13.567Z,12.30
2023-03-25T00:18:17.964Z,12.75
2023-03-25T00:23:22.208Z,13.02
2023-03-25T00:28:25.258Z,14.35
2023-03-25T00:33:28.958Z,14.30
2023-03-25T00:38:35.515Z,11.93
2023-03-25T00:43:38.512Z,11.77
2023-03-25T00:48:42.171Z,12.40
2023-03-25T00:53:45.525Z,12.43
2023-03-25T00:58:48.186Z,11.70
2023-03-25T01:03:58.151Z,12.05
2023-03-25T01:09:04.852Z,11.68
2023-03-25T01:14:11.547Z,10.68
2023-03-25T01:19:14.898Z,12.25
2023-03-25T01:24:18.058Z,11.13
2023-03-25T01:29:21.732Z,11.82
2023-03-25T01:34:24.606Z,12.25
2023-03-25T01:39:28.149Z,12.57
2023-03-25T01:49:45.965Z,10.70
2023-03-25T01:54:51.590Z,10.55
2023-03-25T01:59:55.735Z,10.68
2023-03-25T02:05:04.970Z,11.57
2023-03-25T02:10:09.316Z,11.35
2023-03-25T02:15:14.899Z,10.82
2023-03-25T02:20:49.184Z,9.95
2023-03-25T02:37:18.523Z,10.30
2023-03-25T02:42:34.545Z,10.88
2023-03-25T02:47:44.998Z,9.45
2023-03-25T02:52:51.284Z,10.13
2023-03-25T02:57:57.886Z,10.13
2023-03-25T03:03:04.141Z,10.18
2023-03-25T03:08:24.812Z,10.65
2023-03-25T03:14:07.074Z,9.55
2023-03-25T03:30:12.155Z,8.57
2023-03-25T03:35:23.004Z,9.27
2023-03-25T03:40:29.466Z,9.38
2023-03-25T03:45:41.528Z,9.77
2023-03-25T03:50:50.684Z,10.18
2023-03-25T03:56:01.998Z,9.95
2023-03-25T04:01:30.791Z,10.32
2023-03-25T04:06:41.793Z,11.30
2023-03-25T04:11:50.675Z,10.95
2023-03-25T04:16:54.737Z,10.70
2023-03-25T04:21:57.303Z,10.60
2023-03-25T04:27:04.527Z,11.38
2023-03-25T04:32:08.591Z,10.85
2023-03-25T04:37:11.649Z,11.60
2023-03-25T04:42:17.896Z,12.02
2023-03-25T04:47:24.625Z,13.27
2023-03-25T04:52:27.291Z,12.63
2023-03-25T04:57:31.511Z,12.82
2023-03-25T05:07:36.657Z,16.80
2023-03-25T05:12:39.352Z,15.18
2023-03-25T05:17:42.039Z,14.93
2023-03-25T05:22:45.846Z,16.10
2023-03-25T05:27:48.903Z,17.40
2023-03-25T05:32:56.715Z,18.13
2023-03-25T05:37:59.688Z,17.55
2023-03-25T05:43:03.338Z,17.73
2023-03-25T05:48:06.348Z,18.38
2023-03-25T05:53:13.926Z,18.45
2023-03-25T05:58:17.611Z,16.88
2023-03-25T06:03:21.479Z,19.55
2023-03-25T06:08:26.453Z,18.63
2023-03-25T06:13:29.401Z,21.13
2023-03-25T06:18:33.271Z,23.15
2023-03-25T06:23:35.828Z,19.85
2023-03-25T06:28:38.556Z,20.45
2023-03-25T06:33:42.930Z,20.33
2023-03-25T06:38:48.326Z,18.83
2023-03-25T06:43:52.027Z,20.20
2023-03-25T06:49:14.357Z,19.42
2023-03-25T06:54:18.752Z,18.77
2023-03-25T06:59:21.337Z,20.02
2023-03-25T07:04:24.275Z,17.02
2023-03-25T07:09:27.304Z,17.95
2023-03-25T07:14:30.059Z,20.05
2023-03-25T07:19:32.661Z,20.98
2023-03-25T07:24:35.403Z,22.17
2023-03-25T07:29:38.191Z,19.70
2023-03-25T07:34:43.045Z,20.95
2023-03-25T07:39:45.627Z,18.92
2023-03-25T07:44:48.190Z,19.45
2023-03-25T07:49:50.866Z,18.05
2023-03-25T07:54:53.520Z,19.20
2023-03-25T07:59:56.294Z,20.30
2023-03-25T08:04:58.930Z,16.33
2023-03-25T08:10:01.607Z,16.60
2023-03-25T08:15:05.435Z,18.15
2023-03-25T08:20:09.287Z,16.08
2023-03-25T08:25:12.082Z,13.63
2023-03-25T08:30:15.898Z,13.50
2023-03-25T08:35:19.673Z,14.23
2023-03-25T08:40:22.237Z,15.10
2023-03-25T08:45:24.819Z,12.43
2023-03-25T08:50:28.097Z,14.85
2023-03-25T08:55:30.712Z,14.32
2023-03-25T09:00:36.043Z,12.68
2023-03-25T09:05:39.415Z,13.00
2023-03-25T09:10:42.457Z,13.57
2023-03-25T09:15:46.478Z,13.30
2023-03-25T09:20:49.179Z,14.15
2023-03-25T10:27:46.004Z,12.75
2023-03-25T10:33:06.895Z,13.98
2023-03-25T10:38:27.494Z,14.63
2023-03-25T10:43:47.192Z,14.02
2023-03-25T10:49:05.607Z,17.38
2023-03-25T10:54:27.136Z,15.13
2023-03-25T11:06:15.583Z,16.67
2023-03-25T11:11:45.655Z,14.32
2023-03-25T11:17:10.781Z,12.77
2023-03-25T11:22:36.794Z,13.98
2023-03-25T11:27:57.327Z,14.80
2023-03-25T11:33:25.493Z,13.82
2023-03-25T11:49:39.445Z,14.35
2023-03-25T11:55:09.880Z,13.25
2023-03-25T12:00:40.077Z,13.00
2023-03-25T12:17:29.519Z,13.93
2023-03-25T12:39:43.538Z,21.33
2023-03-25T12:45:39.384Z,16.73
2023-03-25T13:13:02.025Z,23.90
2023-03-25T13:18:37.501Z,27.13
2023-03-25T13:24:01.099Z,14.73
2023-03-25T13:34:51.916Z,18.98
2023-03-25T13:45:33.373Z,16.15
2023-03-25T13:51:03.727Z,20.55
2023-03-25T13:57:03.824Z,17.25
2023-03-25T14:03:03.135Z,26.55
2023-03-25T14:13:48.346Z,31.45
2023-03-25T14:19:13.387Z,28.55
2023-03-25T14:24:43.381Z,30.13
2023-03-25T14:30:08.461Z,35.15
2023-03-25T14:41:03.324Z,43.38
2023-03-25T14:46:29.440Z,47.63
2023-03-25T14:57:25.112Z,49.22
2023-03-25T15:02:45.162Z,53.47
2023-03-25T15:19:21.661Z,55.25
2023-03-25T15:24:46.178Z,50.50
2023-03-25T15:30:55.390Z,49.47
2023-03-25T15:42:07.352Z,89.75
2023-03-25T15:59:12.283Z,68.32
2023-03-25T16:09:50.213Z,121.82
2023-03-25T16:15:15.069Z,105.97
2023-03-25T16:20:45.199Z,97.68
2023-03-25T16:26:02.731Z,79.55
2023-03-25T16:31:41.418Z,89.15
2023-03-25T16:36:59.249Z,81.43
2023-03-25T16:42:32.973Z,74.45
2023-03-25T16:47:53.595Z,78.78
2023-03-25T16:53:14.134Z,79.20
2023-03-25T16:58:33.214Z,72.00
2023-03-25T17:03:53.755Z,73.20
2023-03-25T17:09:23.842Z,70.38
2023-03-25T17:20:22.847Z,47.88
2023-03-25T17:25:43.005Z,43.78
2023-03-25T17:31:02.909Z,36.15
2023-03-25T17:36:29.974Z,31.63
2023-03-25T17:41:47.988Z,27.73
2023-03-25T17:47:04.828Z,32.55
2023-03-25T17:52:25.609Z,31.90
2023-03-25T17:57:46.635Z,31.48
2023-03-25T18:03:02.960Z,30.02
2023-03-25T18:08:24.248Z,30.40
2023-03-25T18:13:45.206Z,28.60
2023-03-25T18:19:02.407Z,28.40
2023-03-25T18:24:23.239Z,27.63
2023-03-25T18:29:53.508Z,24.92
2023-03-25T18:35:14.677Z,25.70
2023-03-25T18:40:36.583Z,27.30
2023-03-25T18:45:54.099Z,31.60
2023-03-25T18:51:14.696Z,35.00
2023-03-25T18:56:35.684Z,51.60
2023-03-25T19:01:54.898Z,42.30
2023-03-25T19:07:11.135Z,49.80
2023-03-25T19:12:39.648Z,45.75
2023-03-25T19:23:41.993Z,35.47
2023-03-25T19:29:10.480Z,36.35
2023-03-25T19:34:41.152Z,26.95
2023-03-25T19:40:01.246Z,23.33
2023-03-25T19:45:22.921Z,23.20
2023-03-25T19:50:43.438Z,22.73
2023-03-25T19:56:04.052Z,22.30
2023-03-25T20:01:21.155Z,21.75
2023-03-25T20:06:41.663Z,24.67
2023-03-25T20:12:01.315Z,25.27
2023-03-25T20:17:21.058Z,27.48
2023-03-25T20:22:41.581Z,27.52
2023-03-25T20:28:02.198Z,28.10
2023-03-25T20:33:29.850Z,37.45
2023-03-25T20:38:56.726Z,26.73
2023-03-25T20:44:13.564Z,26.33
2023-03-25T20:49:31.326Z,26.15
2023-03-25T20:54:49.503Z,24.52
2023-03-25T21:00:10.030Z,45.63
2023-03-25T21:05:28.043Z,58.08
2023-03-25T21:10:48.028Z,79.70
2023-03-25T21:16:08.958Z,39.65
2023-03-25T21:27:04.731Z,68.25
2023-03-25T21:32:20.994Z,83.57
2023-03-25T21:37:46.691Z,31.42
2023-03-25T21:43:03.737Z,44.97
2023-03-25T21:48:24.214Z,33.28
2023-03-25T21:53:52.264Z,23.92
2023-03-25T21:59:09.966Z,33.25
2023-03-25T22:04:39.930Z,35.08
2023-03-25T22:10:00.737Z,40.20
2023-03-25T22:15:17.840Z,33.90
2023-03-25T22:20:48.109Z,42.20
2023-03-25T22:26:08.685Z,50.65
2023-03-25T22:31:32.281Z,54.65
2023-03-25T22:36:54.544Z,53.15
2023-03-25T22:42:12.773Z,39.78
2023-03-25T22:47:33.336Z,35.25
2023-03-25T22:52:51.926Z,50.75
2023-03-25T22:58:08.121Z,55.17
2023-03-25T23:03:28.486Z,61.97
2023-03-25T23:08:48.994Z,59.40
2023-03-25T23:14:18.564Z,56.03
2023-03-25T23:19:39.098Z,52.22
2023-03-25T23:30:21.078Z,51.10
2023-03-25T23:35:39.019Z,51.67
2023-03-25T23:40:58.302Z,48.35
2023-03-25T23:46:19.941Z,46.63
2023-03-25T23:51:40.170Z,44.42
2023-03-25T23:57:00.850Z,42.35
